sensor_id;sensor_type;location;lat;lon;timestamp;P1;durP1;ratioP1;P2;durP2;ratioP2
83119;SDS011;73001;51.784;4.660;2024-01-30T00:01:10;16.88;;;16.80;;
83119;SDS011;73001;51.784;4.660;2024-01-30T00:03:36;16.47;;;16.31;;
83119;SDS011;73001;51.784;4.660;2024-01-30T00:06:02;16.44;;;16.26;;
83119;SDS011;73001;51.784;4.660;2024-01-30T00:08:28;15.92;;;15.86;;
83119;SDS011;73001;51.784;4.660;2024-01-30T00:10:54;15.80;;;15.71;;
83119;SDS011;73001;51.784;4.660;2024-01-30T00:13:20;15.50;;;15.36;;
83119;SDS011;73001;51.784;4.660;2024-01-30T00:15:45;16.13;;;16.01;;
83119;SDS011;73001;51.784;4.660;2024-01-30T00:18:11;15.18;;;15.09;;
83119;SDS011;73001;51.784;4.660;2024-01-30T00:20:36;14.98;;;14.94;;
83119;SDS011;73001;51.784;4.660;2024-01-30T00:23:02;15.17;;;15.08;;
83119;SDS011;73001;51.784;4.660;2024-01-30T00:25:27;15.30;;;15.29;;
83119;SDS011;73001;51.784;4.660;2024-01-30T00:27:53;15.19;;;15.18;;
83119;SDS011;73001;51.784;4.660;2024-01-30T00:30:19;14.69;;;14.67;;
83119;SDS011;73001;51.784;4.660;2024-01-30T00:32:45;14.28;;;14.21;;
83119;SDS011;73001;51.784;4.660;2024-01-30T00:35:11;15.16;;;15.01;;
83119;SDS011;73001;51.784;4.660;2024-01-30T00:37:37;14.45;;;14.31;;
83119;SDS011;73001;51.784;4.660;2024-01-30T00:40:02;14.64;;;14.60;;
83119;SDS011;73001;51.784;4.660;2024-01-30T00:42:28;14.18;;;14.17;;
83119;SDS011;73001;51.784;4.660;2024-01-30T00:44:54;14.56;;;14.40;;
83119;SDS011;73001;51.784;4.660;2024-01-30T00:47:20;14.26;;;14.19;;
83119;SDS011;73001;51.784;4.660;2024-01-30T00:49:45;14.72;;;14.72;;
83119;SDS011;73001;51.784;4.660;2024-01-30T00:52:11;14.37;;;14.30;;
83119;SDS011;73001;51.784;4.660;2024-01-30T00:54:36;14.68;;;14.61;;
83119;SDS011;73001;51.784;4.660;2024-01-30T00:57:02;14.52;;;14.38;;
83119;SDS011;73001;51.784;4.660;2024-01-30T00:59:28;13.95;;;13.95;;
83119;SDS011;73001;51.784;4.660;2024-01-30T01:01:54;14.34;;;14.28;;
83119;SDS011;73001;51.784;4.660;2024-01-30T01:04:19;14.72;;;14.61;;
83119;SDS011;73001;51.784;4.660;2024-01-30T01:06:46;13.97;;;13.91;;
83119;SDS011;73001;51.784;4.660;2024-01-30T01:09:12;14.01;;;13.91;;
83119;SDS011;73001;51.784;4.660;2024-01-30T01:11:38;14.23;;;14.22;;
83119;SDS011;73001;51.784;4.660;2024-01-30T01:14:04;14.68;;;14.64;;
83119;SDS011;73001;51.784;4.660;2024-01-30T01:16:30;14.11;;;14.02;;
83119;SDS011;73001;51.784;4.660;2024-01-30T01:18:55;13.99;;;13.98;;
83119;SDS011;73001;51.784;4.660;2024-01-30T01:21:21;14.06;;;13.93;;
83119;SDS011;73001;51.784;4.660;2024-01-30T01:23:48;14.71;;;14.55;;
83119;SDS011;73001;51.784;4.660;2024-01-30T01:26:13;14.09;;;14.06;;
83119;SDS011;73001;51.784;4.660;2024-01-30T01:28:40;14.31;;;14.26;;
83119;SDS011;73001;51.784;4.660;2024-01-30T01:31:06;14.10;;;14.06;;
83119;SDS011;73001;51.784;4.660;2024-01-30T01:33:32;13.96;;;13.87;;
83119;SDS011;73001;51.784;4.660;2024-01-30T01:35:58;14.50;;;14.40;;
83119;SDS011;73001;51.784;4.660;2024-01-30T01:38:24;14.11;;;14.07;;
83119;SDS011;73001;51.784;4.660;2024-01-30T01:40:50;14.53;;;14.53;;
83119;SDS011;73001;51.784;4.660;2024-01-30T01:43:16;13.54;;;13.54;;
83119;SDS011;73001;51.784;4.660;2024-01-30T01:45:42;14.07;;;13.94;;
83119;SDS011;73001;51.784;4.660;2024-01-30T01:48:07;14.82;;;14.67;;
83119;SDS011;73001;51.784;4.660;2024-01-30T01:50:34;14.44;;;14.35;;
83119;SDS011;73001;51.784;4.660;2024-01-30T01:53:01;14.28;;;14.13;;
83119;SDS011;73001;51.784;4.660;2024-01-30T01:55:28;14.57;;;14.54;;
83119;SDS011;73001;51.784;4.660;2024-01-30T01:57:56;14.51;;;14.47;;
83119;SDS011;73001;51.784;4.660;2024-01-30T02:00:22;14.66;;;14.56;;
83119;SDS011;73001;51.784;4.660;2024-01-30T02:02:49;14.43;;;14.27;;
83119;SDS011;73001;51.784;4.660;2024-01-30T02:05:15;14.09;;;14.06;;
83119;SDS011;73001;51.784;4.660;2024-01-30T02:07:42;14.20;;;14.15;;
83119;SDS011;73001;51.784;4.660;2024-01-30T02:10:08;14.27;;;14.24;;
83119;SDS011;73001;51.784;4.660;2024-01-30T02:12:37;14.18;;;14.01;;
83119;SDS011;73001;51.784;4.660;2024-01-30T02:15:03;13.96;;;13.93;;
83119;SDS011;73001;51.784;4.660;2024-01-30T02:17:30;14.48;;;14.46;;
83119;SDS011;73001;51.784;4.660;2024-01-30T02:19:55;13.97;;;13.86;;
83119;SDS011;73001;51.784;4.660;2024-01-30T02:22:21;13.72;;;13.70;;
83119;SDS011;73001;51.784;4.660;2024-01-30T02:24:48;14.39;;;14.32;;
83119;SDS011;73001;51.784;4.660;2024-01-30T02:27:14;14.54;;;14.39;;
83119;SDS011;73001;51.784;4.660;2024-01-30T02:29:40;13.90;;;13.77;;
83119;SDS011;73001;51.784;4.660;2024-01-30T02:32:06;14.26;;;14.22;;
83119;SDS011;73001;51.784;4.660;2024-01-30T02:34:32;14.14;;;14.04;;
83119;SDS011;73001;51.784;4.660;2024-01-30T02:36:58;14.25;;;14.20;;
83119;SDS011;73001;51.784;4.660;2024-01-30T02:39:24;13.81;;;13.80;;
83119;SDS011;73001;51.784;4.660;2024-01-30T02:41:49;13.91;;;13.88;;
83119;SDS011;73001;51.784;4.660;2024-01-30T02:44:15;14.51;;;14.48;;
83119;SDS011;73001;51.784;4.660;2024-01-30T02:46:40;14.32;;;14.28;;
83119;SDS011;73001;51.784;4.660;2024-01-30T02:49:06;13.98;;;13.97;;
83119;SDS011;73001;51.784;4.660;2024-01-30T02:51:31;13.68;;;13.65;;
83119;SDS011;73001;51.784;4.660;2024-01-30T02:53:57;14.11;;;14.01;;
83119;SDS011;73001;51.784;4.660;2024-01-30T02:56:22;14.35;;;14.30;;
83119;SDS011;73001;51.784;4.660;2024-01-30T02:58:48;14.30;;;14.12;;
83119;SDS011;73001;51.784;4.660;2024-01-30T03:01:13;13.84;;;13.77;;
83119;SDS011;73001;51.784;4.660;2024-01-30T03:03:39;13.57;;;13.50;;
83119;SDS011;73001;51.784;4.660;2024-01-30T03:06:05;14.12;;;14.02;;
83119;SDS011;73001;51.784;4.660;2024-01-30T03:08:32;13.75;;;13.72;;
83119;SDS011;73001;51.784;4.660;2024-01-30T03:10:57;13.11;;;13.04;;
83119;SDS011;73001;51.784;4.660;2024-01-30T03:13:23;13.66;;;13.51;;
83119;SDS011;73001;51.784;4.660;2024-01-30T03:15:50;13.46;;;13.41;;
83119;SDS011;73001;51.784;4.660;2024-01-30T03:18:15;14.18;;;14.06;;
83119;SDS011;73001;51.784;4.660;2024-01-30T03:20:41;13.91;;;13.88;;
83119;SDS011;73001;51.784;4.660;2024-01-30T03:23:06;13.54;;;13.46;;
83119;SDS011;73001;51.784;4.660;2024-01-30T03:25:32;13.64;;;13.56;;
83119;SDS011;73001;51.784;4.660;2024-01-30T03:27:57;14.02;;;13.89;;
83119;SDS011;73001;51.784;4.660;2024-01-30T03:30:23;13.25;;;13.24;;
83119;SDS011;73001;51.784;4.660;2024-01-30T03:32:48;13.78;;;13.73;;
83119;SDS011;73001;51.784;4.660;2024-01-30T03:35:14;13.75;;;13.66;;
83119;SDS011;73001;51.784;4.660;2024-01-30T03:37:40;13.79;;;13.73;;
83119;SDS011;73001;51.784;4.660;2024-01-30T03:40:05;14.17;;;14.11;;
83119;SDS011;73001;51.784;4.660;2024-01-30T03:42:31;13.43;;;13.38;;
83119;SDS011;73001;51.784;4.660;2024-01-30T03:44:57;14.07;;;14.03;;
83119;SDS011;73001;51.784;4.660;2024-01-30T03:47:22;13.58;;;13.57;;
83119;SDS011;73001;51.784;4.660;2024-01-30T03:49:48;13.11;;;13.05;;
83119;SDS011;73001;51.784;4.660;2024-01-30T03:52:13;13.50;;;13.39;;
83119;SDS011;73001;51.784;4.660;2024-01-30T03:54:39;13.44;;;13.40;;
83119;SDS011;73001;51.784;4.660;2024-01-30T03:57:04;13.28;;;13.24;;
83119;SDS011;73001;51.784;4.660;2024-01-30T03:59:30;13.64;;;13.59;;
83119;SDS011;73001;51.784;4.660;2024-01-30T04:01:57;14.13;;;14.09;;
83119;SDS011;73001;51.784;4.660;2024-01-30T04:04:22;13.41;;;13.32;;
83119;SDS011;73001;51.784;4.660;2024-01-30T04:06:48;13.36;;;13.27;;
83119;SDS011;73001;51.784;4.660;2024-01-30T04:09:13;13.60;;;13.54;;
83119;SDS011;73001;51.784;4.660;2024-01-30T04:11:39;13.65;;;13.61;;
83119;SDS011;73001;51.784;4.660;2024-01-30T04:14:05;13.29;;;13.17;;
83119;SDS011;73001;51.784;4.660;2024-01-30T04:16:31;13.37;;;13.22;;
83119;SDS011;73001;51.784;4.660;2024-01-30T04:18:56;13.68;;;13.58;;
83119;SDS011;73001;51.784;4.660;2024-01-30T04:21:22;13.51;;;13.30;;
83119;SDS011;73001;51.784;4.660;2024-01-30T04:23:47;13.70;;;13.63;;
83119;SDS011;73001;51.784;4.660;2024-01-30T04:26:13;13.53;;;13.44;;
83119;SDS011;73001;51.784;4.660;2024-01-30T04:28:41;13.48;;;13.44;;
83119;SDS011;73001;51.784;4.660;2024-01-30T04:31:07;12.74;;;12.70;;
83119;SDS011;73001;51.784;4.660;2024-01-30T04:33:33;12.99;;;12.96;;
83119;SDS011;73001;51.784;4.660;2024-01-30T04:35:59;12.85;;;12.85;;
83119;SDS011;73001;51.784;4.660;2024-01-30T04:38:24;12.94;;;12.89;;
83119;SDS011;73001;51.784;4.660;2024-01-30T04:40:50;12.89;;;12.84;;
83119;SDS011;73001;51.784;4.660;2024-01-30T04:43:15;12.66;;;12.63;;
83119;SDS011;73001;51.784;4.660;2024-01-30T04:45:41;12.82;;;12.82;;
83119;SDS011;73001;51.784;4.660;2024-01-30T04:48:07;12.64;;;12.64;;
83119;SDS011;73001;51.784;4.660;2024-01-30T04:50:32;12.49;;;12.46;;
83119;SDS011;73001;51.784;4.660;2024-01-30T04:52:58;12.81;;;12.76;;
83119;SDS011;73001;51.784;4.660;2024-01-30T04:55:24;12.72;;;12.62;;
83119;SDS011;73001;51.784;4.660;2024-01-30T04:57:49;12.41;;;12.39;;
83119;SDS011;73001;51.784;4.660;2024-01-30T05:00:15;12.50;;;12.38;;
83119;SDS011;73001;51.784;4.660;2024-01-30T05:02:40;12.11;;;12.04;;
83119;SDS011;73001;51.784;4.660;2024-01-30T05:05:06;11.60;;;11.56;;
83119;SDS011;73001;51.784;4.660;2024-01-30T05:07:32;12.43;;;12.39;;
83119;SDS011;73001;51.784;4.660;2024-01-30T05:09:57;12.38;;;12.33;;
83119;SDS011;73001;51.784;4.660;2024-01-30T05:12:23;11.99;;;11.95;;
83119;SDS011;73001;51.784;4.660;2024-01-30T05:14:48;12.34;;;12.17;;
83119;SDS011;73001;51.784;4.660;2024-01-30T05:17:14;12.52;;;12.34;;
83119;SDS011;73001;51.784;4.660;2024-01-30T05:19:39;12.30;;;12.26;;
83119;SDS011;73001;51.784;4.660;2024-01-30T05:22:05;12.11;;;12.11;;
83119;SDS011;73001;51.784;4.660;2024-01-30T05:24:30;12.47;;;12.42;;
83119;SDS011;73001;51.784;4.660;2024-01-30T05:26:56;13.23;;;13.06;;
83119;SDS011;73001;51.784;4.660;2024-01-30T05:29:21;12.73;;;12.64;;
83119;SDS011;73001;51.784;4.660;2024-01-30T05:31:47;12.50;;;12.48;;
83119;SDS011;73001;51.784;4.660;2024-01-30T05:34:12;12.09;;;12.07;;
83119;SDS011;73001;51.784;4.660;2024-01-30T05:36:38;12.52;;;12.44;;
83119;SDS011;73001;51.784;4.660;2024-01-30T05:39:03;12.51;;;12.48;;
83119;SDS011;73001;51.784;4.660;2024-01-30T05:41:30;12.57;;;12.47;;
83119;SDS011;73001;51.784;4.660;2024-01-30T05:43:55;12.15;;;12.11;;
83119;SDS011;73001;51.784;4.660;2024-01-30T05:46:21;12.51;;;12.39;;
83119;SDS011;73001;51.784;4.660;2024-01-30T05:48:47;12.02;;;11.92;;
83119;SDS011;73001;51.784;4.660;2024-01-30T05:51:12;12.46;;;12.42;;
83119;SDS011;73001;51.784;4.660;2024-01-30T05:53:38;12.79;;;12.72;;
83119;SDS011;73001;51.784;4.660;2024-01-30T05:56:04;12.54;;;12.54;;
83119;SDS011;73001;51.784;4.660;2024-01-30T05:58:29;11.98;;;11.97;;
83119;SDS011;73001;51.784;4.660;2024-01-30T06:00:56;12.02;;;12.01;;
83119;SDS011;73001;51.784;4.660;2024-01-30T06:03:22;12.18;;;12.14;;
83119;SDS011;73001;51.784;4.660;2024-01-30T06:05:48;12.18;;;12.17;;
83119;SDS011;73001;51.784;4.660;2024-01-30T06:08:14;12.26;;;12.18;;
83119;SDS011;73001;51.784;4.660;2024-01-30T06:10:39;12.91;;;12.79;;
83119;SDS011;73001;51.784;4.660;2024-01-30T06:13:05;12.55;;;12.50;;
83119;SDS011;73001;51.784;4.660;2024-01-30T06:15:31;12.15;;;12.09;;
83119;SDS011;73001;51.784;4.660;2024-01-30T06:17:58;12.40;;;12.37;;
83119;SDS011;73001;51.784;4.660;2024-01-30T06:20:24;12.56;;;12.50;;
83119;SDS011;73001;51.784;4.660;2024-01-30T06:22:49;12.63;;;12.62;;
83119;SDS011;73001;51.784;4.660;2024-01-30T06:25:15;12.86;;;12.83;;
83119;SDS011;73001;51.784;4.660;2024-01-30T06:27:42;13.09;;;13.07;;
83119;SDS011;73001;51.784;4.660;2024-01-30T06:30:07;12.00;;;11.98;;
83119;SDS011;73001;51.784;4.660;2024-01-30T06:32:34;12.87;;;12.75;;
83119;SDS011;73001;51.784;4.660;2024-01-30T06:35:01;13.03;;;12.91;;
83119;SDS011;73001;51.784;4.660;2024-01-30T06:37:27;13.08;;;12.93;;
83119;SDS011;73001;51.784;4.660;2024-01-30T06:39:52;12.32;;;12.25;;
83119;SDS011;73001;51.784;4.660;2024-01-30T06:42:18;12.59;;;12.51;;
83119;SDS011;73001;51.784;4.660;2024-01-30T06:44:44;12.50;;;12.47;;
83119;SDS011;73001;51.784;4.660;2024-01-30T06:47:09;12.76;;;12.73;;
83119;SDS011;73001;51.784;4.660;2024-01-30T06:49:35;12.25;;;12.23;;
83119;SDS011;73001;51.784;4.660;2024-01-30T06:52:06;12.57;;;12.49;;
83119;SDS011;73001;51.784;4.660;2024-01-30T06:54:32;12.60;;;12.56;;
83119;SDS011;73001;51.784;4.660;2024-01-30T06:56:58;12.39;;;12.35;;
83119;SDS011;73001;51.784;4.660;2024-01-30T06:59:24;12.13;;;12.12;;
83119;SDS011;73001;51.784;4.660;2024-01-30T07:01:49;12.26;;;12.22;;
83119;SDS011;73001;51.784;4.660;2024-01-30T07:04:15;11.67;;;11.58;;
83119;SDS011;73001;51.784;4.660;2024-01-30T07:06:41;12.22;;;12.07;;
83119;SDS011;73001;51.784;4.660;2024-01-30T07:09:07;12.24;;;12.17;;
83119;SDS011;73001;51.784;4.660;2024-01-30T07:11:33;12.60;;;12.50;;
83119;SDS011;73001;51.784;4.660;2024-01-30T07:13:59;12.62;;;12.53;;
83119;SDS011;73001;51.784;4.660;2024-01-30T07:16:24;12.28;;;12.23;;
83119;SDS011;73001;51.784;4.660;2024-01-30T07:18:50;12.43;;;12.26;;
83119;SDS011;73001;51.784;4.660;2024-01-30T07:21:16;12.56;;;12.53;;
83119;SDS011;73001;51.784;4.660;2024-01-30T07:23:42;12.78;;;12.77;;
83119;SDS011;73001;51.784;4.660;2024-01-30T07:26:08;12.31;;;12.31;;
83119;SDS011;73001;51.784;4.660;2024-01-30T07:28:34;11.73;;;11.72;;
83119;SDS011;73001;51.784;4.660;2024-01-30T07:31:00;12.22;;;12.19;;
83119;SDS011;73001;51.784;4.660;2024-01-30T07:33:26;12.52;;;12.52;;
83119;SDS011;73001;51.784;4.660;2024-01-30T07:35:52;11.95;;;11.92;;
83119;SDS011;73001;51.784;4.660;2024-01-30T07:38:19;12.46;;;12.41;;
83119;SDS011;73001;51.784;4.660;2024-01-30T07:40:44;12.17;;;12.12;;
83119;SDS011;73001;51.784;4.660;2024-01-30T07:43:10;12.80;;;12.76;;
83119;SDS011;73001;51.784;4.660;2024-01-30T07:45:36;12.94;;;12.90;;
83119;SDS011;73001;51.784;4.660;2024-01-30T07:48:02;12.54;;;12.48;;
83119;SDS011;73001;51.784;4.660;2024-01-30T07:50:28;12.18;;;12.18;;
83119;SDS011;73001;51.784;4.660;2024-01-30T07:52:55;12.52;;;12.51;;
83119;SDS011;73001;51.784;4.660;2024-01-30T07:55:21;11.97;;;11.95;;
83119;SDS011;73001;51.784;4.660;2024-01-30T07:57:52;11.43;;;11.41;;
83119;SDS011;73001;51.784;4.660;2024-01-30T08:00:18;11.57;;;11.55;;
83119;SDS011;73001;51.784;4.660;2024-01-30T08:02:45;11.85;;;11.84;;
83119;SDS011;73001;51.784;4.660;2024-01-30T08:05:11;12.00;;;12.00;;
83119;SDS011;73001;51.784;4.660;2024-01-30T08:07:36;11.88;;;11.80;;
83119;SDS011;73001;51.784;4.660;2024-01-30T08:10:02;11.47;;;11.42;;
83119;SDS011;73001;51.784;4.660;2024-01-30T08:12:28;12.36;;;12.36;;
83119;SDS011;73001;51.784;4.660;2024-01-30T08:14:54;11.82;;;11.80;;
83119;SDS011;73001;51.784;4.660;2024-01-30T08:17:19;11.82;;;11.75;;
83119;SDS011;73001;51.784;4.660;2024-01-30T08:19:45;11.86;;;11.80;;
83119;SDS011;73001;51.784;4.660;2024-01-30T08:22:11;11.61;;;11.59;;
83119;SDS011;73001;51.784;4.660;2024-01-30T08:24:37;11.68;;;11.66;;
83119;SDS011;73001;51.784;4.660;2024-01-30T08:27:03;11.42;;;11.41;;
83119;SDS011;73001;51.784;4.660;2024-01-30T08:29:30;11.52;;;11.51;;
83119;SDS011;73001;51.784;4.660;2024-01-30T08:31:55;11.87;;;11.82;;
83119;SDS011;73001;51.784;4.660;2024-01-30T08:34:21;11.99;;;11.99;;
83119;SDS011;73001;51.784;4.660;2024-01-30T08:36:46;11.99;;;11.98;;
83119;SDS011;73001;51.784;4.660;2024-01-30T08:39:13;11.77;;;11.77;;
83119;SDS011;73001;51.784;4.660;2024-01-30T08:41:38;11.73;;;11.73;;
83119;SDS011;73001;51.784;4.660;2024-01-30T08:44:04;11.92;;;11.92;;
83119;SDS011;73001;51.784;4.660;2024-01-30T08:46:29;11.66;;;11.65;;
83119;SDS011;73001;51.784;4.660;2024-01-30T08:48:55;11.61;;;11.60;;
83119;SDS011;73001;51.784;4.660;2024-01-30T08:51:21;11.77;;;11.77;;
83119;SDS011;73001;51.784;4.660;2024-01-30T08:53:47;11.49;;;11.46;;
83119;SDS011;73001;51.784;4.660;2024-01-30T08:56:12;11.12;;;11.11;;
83119;SDS011;73001;51.784;4.660;2024-01-30T08:58:38;10.98;;;10.98;;
83119;SDS011;73001;51.784;4.660;2024-01-30T09:01:04;11.60;;;11.59;;
83119;SDS011;73001;51.784;4.660;2024-01-30T09:03:31;11.33;;;11.33;;
83119;SDS011;73001;51.784;4.660;2024-01-30T09:05:56;10.83;;;10.83;;
83119;SDS011;73001;51.784;4.660;2024-01-30T09:08:22;11.59;;;11.58;;
83119;SDS011;73001;51.784;4.660;2024-01-30T09:10:48;10.92;;;10.92;;
83119;SDS011;73001;51.784;4.660;2024-01-30T09:13:14;11.31;;;11.31;;
83119;SDS011;73001;51.784;4.660;2024-01-30T09:15:41;10.62;;;10.62;;
83119;SDS011;73001;51.784;4.660;2024-01-30T09:18:07;10.95;;;10.95;;
83119;SDS011;73001;51.784;4.660;2024-01-30T09:20:32;10.78;;;10.78;;
83119;SDS011;73001;51.784;4.660;2024-01-30T09:22:58;10.92;;;10.91;;
83119;SDS011;73001;51.784;4.660;2024-01-30T09:25:24;10.90;;;10.87;;
83119;SDS011;73001;51.784;4.660;2024-01-30T09:27:49;10.87;;;10.87;;
83119;SDS011;73001;51.784;4.660;2024-01-30T09:30:15;10.94;;;10.90;;
83119;SDS011;73001;51.784;4.660;2024-01-30T09:32:40;10.64;;;10.63;;
83119;SDS011;73001;51.784;4.660;2024-01-30T09:35:07;11.11;;;11.11;;
83119;SDS011;73001;51.784;4.660;2024-01-30T09:37:32;10.68;;;10.64;;
83119;SDS011;73001;51.784;4.660;2024-01-30T09:39:58;10.87;;;10.87;;
83119;SDS011;73001;51.784;4.660;2024-01-30T09:45:00;10.73;;;10.73;;
83119;SDS011;73001;51.784;4.660;2024-01-30T09:47:27;10.58;;;10.57;;
83119;SDS011;73001;51.784;4.660;2024-01-30T09:49:52;10.76;;;10.76;;
83119;SDS011;73001;51.784;4.660;2024-01-30T09:52:18;10.40;;;10.39;;
83119;SDS011;73001;51.784;4.660;2024-01-30T09:54:45;11.02;;;11.00;;
83119;SDS011;73001;51.784;4.660;2024-01-30T09:57:11;10.55;;;10.55;;
83119;SDS011;73001;51.784;4.660;2024-01-30T09:59:36;10.22;;;10.21;;
83119;SDS011;73001;51.784;4.660;2024-01-30T10:02:02;10.27;;;10.27;;
83119;SDS011;73001;51.784;4.660;2024-01-30T10:04:29;10.39;;;10.39;;
83119;SDS011;73001;51.784;4.660;2024-01-30T10:06:55;9.80;;;9.79;;
83119;SDS011;73001;51.784;4.660;2024-01-30T10:09:23;9.63;;;9.63;;
83119;SDS011;73001;51.784;4.660;2024-01-30T10:11:50;9.53;;;9.50;;
83119;SDS011;73001;51.784;4.660;2024-01-30T10:14:16;9.18;;;9.14;;
83119;SDS011;73001;51.784;4.660;2024-01-30T10:16:42;9.45;;;9.42;;
83119;SDS011;73001;51.784;4.660;2024-01-30T10:19:07;8.81;;;8.81;;
83119;SDS011;73001;51.784;4.660;2024-01-30T10:21:33;8.98;;;8.95;;
83119;SDS011;73001;51.784;4.660;2024-01-30T10:23:58;8.21;;;8.19;;
83119;SDS011;73001;51.784;4.660;2024-01-30T10:26:24;7.27;;;7.23;;
83119;SDS011;73001;51.784;4.660;2024-01-30T10:28:50;7.04;;;7.02;;
83119;SDS011;73001;51.784;4.660;2024-01-30T10:31:17;6.88;;;6.88;;
83119;SDS011;73001;51.784;4.660;2024-01-30T10:33:43;6.66;;;6.65;;
83119;SDS011;73001;51.784;4.660;2024-01-30T10:36:09;6.29;;;6.29;;
83119;SDS011;73001;51.784;4.660;2024-01-30T10:38:39;5.97;;;5.96;;
83119;SDS011;73001;51.784;4.660;2024-01-30T10:41:08;5.60;;;5.59;;
83119;SDS011;73001;51.784;4.660;2024-01-30T10:43:42;6.58;;;6.58;;
83119;SDS011;73001;51.784;4.660;2024-01-30T10:46:20;6.17;;;6.17;;
83119;SDS011;73001;51.784;4.660;2024-01-30T10:48:51;5.06;;;5.06;;
83119;SDS011;73001;51.784;4.660;2024-01-30T10:51:26;3.53;;;3.52;;
83119;SDS011;73001;51.784;4.660;2024-01-30T10:53:52;3.09;;;2.98;;
83119;SDS011;73001;51.784;4.660;2024-01-30T10:56:22;1.37;;;1.28;;
83119;SDS011;73001;51.784;4.660;2024-01-30T10:58:52;1.13;;;1.03;;
83119;SDS011;73001;51.784;4.660;2024-01-30T11:01:18;1.23;;;1.10;;
83119;SDS011;73001;51.784;4.660;2024-01-30T11:03:48;1.23;;;1.09;;
83119;SDS011;73001;51.784;4.660;2024-01-30T11:06:16;1.38;;;1.20;;
83119;SDS011;73001;51.784;4.660;2024-01-30T11:08:43;1.64;;;1.43;;
83119;SDS011;73001;51.784;4.660;2024-01-30T11:11:24;1.52;;;1.32;;
83119;SDS011;73001;51.784;4.660;2024-01-30T11:13:50;1.94;;;1.68;;
83119;SDS011;73001;51.784;4.660;2024-01-30T11:16:15;2.07;;;1.81;;
83119;SDS011;73001;51.784;4.660;2024-01-30T11:18:41;1.99;;;1.79;;
83119;SDS011;73001;51.784;4.660;2024-01-30T11:21:06;1.94;;;1.78;;
83119;SDS011;73001;51.784;4.660;2024-01-30T11:23:33;1.95;;;1.81;;
83119;SDS011;73001;51.784;4.660;2024-01-30T11:26:00;2.31;;;2.17;;
83119;SDS011;73001;51.784;4.660;2024-01-30T11:28:25;2.35;;;2.24;;
83119;SDS011;73001;51.784;4.660;2024-01-30T11:31:05;2.13;;;2.13;;
83119;SDS011;73001;51.784;4.660;2024-01-30T11:33:32;2.38;;;2.38;;
83119;SDS011;73001;51.784;4.660;2024-01-30T11:35:59;2.40;;;2.40;;
83119;SDS011;73001;51.784;4.660;2024-01-30T11:38:29;2.62;;;2.62;;
83119;SDS011;73001;51.784;4.660;2024-01-30T11:40:55;2.70;;;2.70;;
83119;SDS011;73001;51.784;4.660;2024-01-30T11:43:22;3.06;;;3.06;;
83119;SDS011;73001;51.784;4.660;2024-01-30T11:45:48;2.72;;;2.55;;
83119;SDS011;73001;51.784;4.660;2024-01-30T11:48:14;2.85;;;2.51;;
83119;SDS011;73001;51.784;4.660;2024-01-30T11:50:40;3.12;;;2.65;;
83119;SDS011;73001;51.784;4.660;2024-01-30T11:53:06;3.51;;;2.75;;
83119;SDS011;73001;51.784;4.660;2024-01-30T11:55:32;4.15;;;3.13;;
83119;SDS011;73001;51.784;4.660;2024-01-30T11:57:59;3.59;;;2.70;;
83119;SDS011;73001;51.784;4.660;2024-01-30T12:00:25;3.69;;;2.79;;
83119;SDS011;73001;51.784;4.660;2024-01-30T12:02:55;4.07;;;2.96;;
83119;SDS011;73001;51.784;4.660;2024-01-30T12:05:24;4.18;;;3.00;;
83119;SDS011;73001;51.784;4.660;2024-01-30T12:07:50;3.96;;;2.87;;
83119;SDS011;73001;51.784;4.660;2024-01-30T12:10:16;3.28;;;2.43;;
83119;SDS011;73001;51.784;4.660;2024-01-30T12:12:46;3.53;;;2.59;;
83119;SDS011;73001;51.784;4.660;2024-01-30T12:15:16;3.44;;;2.57;;
83119;SDS011;73001;51.784;4.660;2024-01-30T12:17:43;4.49;;;3.28;;
83119;SDS011;73001;51.784;4.660;2024-01-30T12:20:10;4.28;;;3.20;;
83119;SDS011;73001;51.784;4.660;2024-01-30T12:22:40;3.37;;;2.54;;
83119;SDS011;73001;51.784;4.660;2024-01-30T12:25:14;3.45;;;2.57;;
83119;SDS011;73001;51.784;4.660;2024-01-30T12:27:48;3.11;;;2.32;;
83119;SDS011;73001;51.784;4.660;2024-01-30T12:30:15;2.93;;;2.18;;
83119;SDS011;73001;51.784;4.660;2024-01-30T12:32:43;3.63;;;2.68;;
83119;SDS011;73001;51.784;4.660;2024-01-30T12:35:10;3.60;;;2.66;;
83119;SDS011;73001;51.784;4.660;2024-01-30T12:37:40;3.33;;;2.60;;
83119;SDS011;73001;51.784;4.660;2024-01-30T12:40:09;2.78;;;2.19;;
83119;SDS011;73001;51.784;4.660;2024-01-30T12:42:36;2.84;;;2.27;;
83119;SDS011;73001;51.784;4.660;2024-01-30T12:45:02;2.63;;;2.14;;
83119;SDS011;73001;51.784;4.660;2024-01-30T12:47:29;1.94;;;1.59;;
83119;SDS011;73001;51.784;4.660;2024-01-30T12:49:55;2.10;;;1.68;;
83119;SDS011;73001;51.784;4.660;2024-01-30T12:52:21;2.08;;;1.65;;
83119;SDS011;73001;51.784;4.660;2024-01-30T12:54:47;2.56;;;2.05;;
83119;SDS011;73001;51.784;4.660;2024-01-30T12:57:13;2.41;;;1.97;;
83119;SDS011;73001;51.784;4.660;2024-01-30T12:59:39;2.60;;;2.10;;
83119;SDS011;73001;51.784;4.660;2024-01-30T13:02:04;2.52;;;2.07;;
83119;SDS011;73001;51.784;4.660;2024-01-30T13:04:32;2.45;;;2.07;;
83119;SDS011;73001;51.784;4.660;2024-01-30T13:06:57;2.41;;;2.14;;
83119;SDS011;73001;51.784;4.660;2024-01-30T13:09:23;3.37;;;3.17;;
83119;SDS011;73001;51.784;4.660;2024-01-30T13:11:49;4.28;;;4.18;;
83119;SDS011;73001;51.784;4.660;2024-01-30T13:14:16;5.66;;;5.61;;
83119;SDS011;73001;51.784;4.660;2024-01-30T13:16:43;6.38;;;6.31;;
83119;SDS011;73001;51.784;4.660;2024-01-30T13:19:08;5.58;;;5.53;;
83119;SDS011;73001;51.784;4.660;2024-01-30T13:21:34;4.61;;;4.55;;
83119;SDS011;73001;51.784;4.660;2024-01-30T13:23:59;4.49;;;4.45;;
83119;SDS011;73001;51.784;4.660;2024-01-30T13:26:25;3.98;;;3.91;;
83119;SDS011;73001;51.784;4.660;2024-01-30T13:28:50;3.86;;;3.72;;
83119;SDS011;73001;51.784;4.660;2024-01-30T13:31:16;3.99;;;3.81;;
83119;SDS011;73001;51.784;4.660;2024-01-30T13:33:42;4.02;;;3.81;;
83119;SDS011;73001;51.784;4.660;2024-01-30T13:36:09;3.70;;;3.56;;
83119;SDS011;73001;51.784;4.660;2024-01-30T13:38:36;3.33;;;3.16;;
83119;SDS011;73001;51.784;4.660;2024-01-30T13:41:01;3.20;;;2.93;;
83119;SDS011;73001;51.784;4.660;2024-01-30T13:43:27;3.18;;;2.82;;
83119;SDS011;73001;51.784;4.660;2024-01-30T13:45:53;3.47;;;3.10;;
83119;SDS011;73001;51.784;4.660;2024-01-30T13:48:20;3.52;;;3.17;;
83119;SDS011;73001;51.784;4.660;2024-01-30T13:50:45;3.26;;;2.98;;
83119;SDS011;73001;51.784;4.660;2024-01-30T13:53:11;3.21;;;2.95;;
83119;SDS011;73001;51.784;4.660;2024-01-30T13:55:37;3.44;;;3.13;;
83119;SDS011;73001;51.784;4.660;2024-01-30T13:58:04;2.77;;;2.51;;
83119;SDS011;73001;51.784;4.660;2024-01-30T14:00:30;3.91;;;3.65;;
83119;SDS011;73001;51.784;4.660;2024-01-30T14:02:55;4.30;;;4.27;;
83119;SDS011;73001;51.784;4.660;2024-01-30T14:05:22;3.27;;;3.19;;
83119;SDS011;73001;51.784;4.660;2024-01-30T14:07:48;2.79;;;2.79;;
83119;SDS011;73001;51.784;4.660;2024-01-30T14:10:15;3.00;;;2.86;;
83119;SDS011;73001;51.784;4.660;2024-01-30T14:12:41;2.97;;;2.90;;
83119;SDS011;73001;51.784;4.660;2024-01-30T14:15:09;2.85;;;2.77;;
83119;SDS011;73001;51.784;4.660;2024-01-30T14:17:42;3.07;;;2.89;;
83119;SDS011;73001;51.784;4.660;2024-01-30T14:20:08;3.45;;;3.21;;
83119;SDS011;73001;51.784;4.660;2024-01-30T14:22:34;3.14;;;2.95;;
83119;SDS011;73001;51.784;4.660;2024-01-30T14:25:02;3.48;;;3.31;;